Time;durP1;ratioP1;P1;durP2;ratioP2;P2;SDS_P1;SDS_P2;PMS_P1;PMS_P2;Temp;Humidity;BMP_temperature;BMP_pressure;BME280_temperature;BME280_humidity;BME280_pressure;Samples;Min_cycle;Max_cycle;Signal;HPM_P1;HPM_P2
2022/09/20 04:00:22;;;;;;;1.15;0.60;;;17.40;79.10;;;;;;6100669;23;20978;31
2022/09/20 04:03:06;;;;;;;1.98;0.60;;;17.40;79.20;;;;;;4917339;29;20064;-74
2022/09/20 04:05:49;;;;;;;2.00;0.70;;;17.40;79.10;;;;;;4909158;29;20445;-74
2022/09/20 04:08:20;;;;;;;1.25;0.68;;;17.40;79.20;;;;;;4907698;29;20028;-75
2022/09/20 04:10:58;;;;;;;2.53;0.85;;;17.40;79.20;;;;;;4908102;29;20039;-74
2022/09/20 04:13:36;;;;;;;1.60;0.60;;;17.40;79.20;;;;;;4915756;29;20028;-75
2022/09/20 04:16:23;;;;;;;1.65;0.65;;;17.40;79.20;;;;;;4907931;29;20028;-75
2022/09/20 04:19:08;;;;;;;1.70;0.50;;;17.40;79.10;;;;;;4909266;29;20038;-75
2022/09/20 04:21:40;;;;;;;1.73;0.60;;;17.40;79.30;;;;;;4908686;29;20020;-75
2022/09/20 04:24:14;;;;;;;2.38;0.70;;;17.40;79.40;;;;;;4910409;29;20040;-75
2022/09/20 04:26:50;;;;;;;2.45;0.65;;;17.40;79.30;;;;;;4927283;29;20031;-74
2022/09/20 04:29:26;;;;;;;2.05;0.52;;;17.40;79.20;;;;;;4928793;29;20104;-75
2022/09/20 04:32:26;;;;;;;1.35;0.52;;;17.40;79.10;;;;;;4927662;29;20604;-74
2022/09/20 04:37:55;;;;;;;1.85;0.50;;;17.40;79.00;;;;;;4889806;29;20044;-75
2022/09/20 04:40:28;;;;;;;2.63;0.82;;;17.40;79.00;;;;;;4889426;29;20025;-75
2022/09/20 04:43:12;;;;;;;0.85;0.60;;;17.40;79.10;;;;;;4888818;29;20516;-75
2022/09/20 04:46:04;;;;;;;1.20;0.60;;;17.40;79.10;;;;;;4922265;29;20659;-76
2022/09/20 04:48:53;;;;;;;2.88;0.65;;;17.40;79.20;;;;;;4907359;29;20043;-74
2022/09/20 04:51:36;;;;;;;2.33;0.60;;;17.40;79.20;;;;;;4915237;29;20516;-75
2022/09/20 04:54:36;;;;;;;1.40;0.60;;;17.40;79.20;;;;;;4913012;29;20035;-76
2022/09/20 04:57:40;;;;;;;2.13;0.77;;;17.40;79.30;;;;;;4918976;29;20576;-75
2022/09/20 05:00:11;;;;;;;2.10;0.60;;;17.40;79.20;;;;;;4911215;29;20040;-76
2022/09/20 05:02:56;;;;;;;;;;;17.40;79.10;;;;;;4936232;29;20043;-74
2022/09/20 05:05:49;;;;;;;1.48;0.60;;;17.40;79.00;;;;;;4889039;29;20345;-75
2022/09/20 05:08:45;;;;;;;4.63;0.70;;;17.40;79.00;;;;;;4913531;29;20032;-74
2022/09/20 05:11:35;;;;;;;3.60;0.70;;;17.30;78.90;;;;;;4898931;29;20062;-75
2022/09/20 05:14:03;;;;;;;3.70;0.95;;;17.40;79.10;;;;;;4919668;29;20493;-74
2022/09/20 05:17:30;;;;;;;3.08;0.70;;;17.40;79.10;;;;;;4913258;29;20040;-75
2022/09/20 05:20:29;;;;;;;2.15;0.60;;;17.40;79.20;;;;;;4890626;29;20029;-76
2022/09/20 05:23:32;;;;;;;2.10;0.73;;;17.40;79.20;;;;;;4890910;29;20504;-75
2022/09/20 05:26:15;;;;;;;3.80;0.70;;;17.40;79.10;;;;;;4910437;29;20031;-74
2022/09/20 05:29:03;;;;;;;3.05;0.68;;;17.40;79.00;;;;;;4918720;29;20032;-75
2022/09/20 05:31:51;;;;;;;6.25;1.10;;;17.40;78.90;;;;;;4923258;29;20032;-77
2022/09/20 05:34:42;;;;;;;6.57;1.00;;;17.40;78.80;;;;;;4922632;29;20032;-77
2022/09/20 05:37:43;;;;;;;4.28;0.80;;;17.40;78.80;;;;;;4930107;29;20378;-76
2022/09/20 05:40:37;;;;;;;3.65;0.80;;;17.40;78.90;;;;;;4927529;29;20044;-75
2022/09/20 05:43:12;;;;;;;3.15;0.75;;;17.40;78.90;;;;;;4928118;29;20225;-75
2022/09/20 05:46:01;;;;;;;2.25;0.75;;;17.40;78.90;;;;;;4930001;29;20059;-77
2022/09/20 05:48:54;;;;;;;4.13;0.88;;;17.40;79.00;;;;;;4929995;29;20071;-76
2022/09/20 05:51:46;;;;;;;3.83;0.77;;;17.40;79.60;;;;;;4929923;29;20404;-75
2022/09/20 05:54:49;;;;;;;4.00;0.70;;;17.40;79.00;;;;;;4928644;29;20343;-75
2022/09/20 05:57:30;;;;;;;3.53;0.98;;;17.30;79.10;;;;;;4928968;29;20035;-75
2022/09/20 06:00:13;;;;;;;1.77;0.80;;;17.30;79.10;;;;;;4930368;29;20050;-74
2022/09/20 06:03:08;;;;;;;5.28;1.00;;;17.30;79.00;;;;;;4930171;29;20044;-74
2022/09/20 06:06:09;;;;;;;4.00;0.95;;;17.40;79.00;;;;;;4930213;29;20531;-76
2022/09/20 06:08:56;;;;;;;5.15;0.70;;;17.40;79.10;;;;;;4930350;29;20074;-76
2022/09/20 06:11:50;;;;;;;3.22;0.85;;;17.40;79.00;;;;;;4928439;29;20039;-75
2022/09/20 06:14:46;;;;;;;2.83;0.70;;;17.40;79.10;;;;;;4928988;29;20035;-76
2022/09/20 06:17:32;;;;;;;2.80;1.00;;;17.40;79.20;;;;;;4929088;29;20130;-76
2022/09/20 06:20:36;;;;;;;2.95;0.80;;;17.40;79.10;;;;;;4929812;29;20028;-76
2022/09/20 06:23:04;;;;;;;3.60;0.80;;;17.40;79.20;;;;;;4928391;29;20419;-75
2022/09/20 06:25:47;;;;;;;4.18;0.90;;;17.40;79.20;;;;;;4929538;29;20048;-76
2022/09/20 06:28:17;;;;;;;2.83;0.68;;;17.40;79.00;;;;;;4929917;29;20035;-75
2022/09/20 06:30:54;;;;;;;4.57;0.90;;;17.40;78.90;;;;;;4929672;29;20082;-75
2022/09/20 06:33:23;;;;;;;3.78;0.70;;;17.40;79.00;;;;;;4929610;29;20020;-75
2022/09/20 06:41:25;;;;;;;2.67;0.93;;;17.40;79.00;;;;;;4928219;29;20312;-76
2022/09/20 06:41:43;;;;;;;3.90;0.80;;;17.40;79.10;;;;;;4929357;29;20360;-75
2022/09/20 06:44:09;;;;;;;4.35;1.08;;;17.40;79.10;;;;;;4929401;29;20404;-76
2022/09/20 06:46:35;;;;;;;2.53;0.93;;;17.40;79.00;;;;;;4928028;29;20031;-75
2022/09/20 06:49:02;;;;;;;3.50;0.88;;;17.40;79.00;;;;;;4929638;29;20035;-76
2022/09/20 06:51:35;;;;;;;4.20;0.90;;;17.40;79.10;;;;;;4927880;29;20118;-75
2022/09/20 06:54:01;;;;;;;2.85;0.70;;;17.40;79.00;;;;;;4928142;29;20023;-75
2022/09/20 06:56:29;;;;;;;2.88;0.70;;;17.40;79.10;;;;;;4927939;29;20452;-76
2022/09/20 06:58:55;;;;;;;2.80;0.90;;;17.30;79.00;;;;;;4927903;29;20087;-76
2022/09/20 07:01:21;;;;;;;2.60;0.70;;;17.40;79.10;;;;;;4928998;29;20331;-76
2022/09/20 07:03:47;;;;;;;1.67;0.65;;;17.40;79.70;;;;;;4927455;29;20531;-75
2022/09/20 07:06:18;;;;;;;1.83;0.60;;;17.40;79.10;;;;;;4928999;29;20036;-75
2022/09/20 07:08:45;;;;;;;3.67;0.80;;;17.40;79.20;;;;;;4929484;29;20031;-75
2022/09/20 07:11:14;;;;;;;2.30;0.60;;;17.40;79.30;;;;;;4928790;29;20159;-75
2022/09/20 07:13:40;;;;;;;2.90;0.77;;;17.40;79.10;;;;;;4927333;29;20071;-76
2022/09/20 07:16:07;;;;;;;1.92;0.75;;;17.40;79.30;;;;;;4927767;29;20531;-76
2022/09/20 07:18:33;;;;;;;1.98;0.65;;;17.40;79.30;;;;;;4928646;29;20279;-75
2022/09/20 07:20:59;;;;;;;1.67;0.68;;;17.40;79.20;;;;;;4928923;29;20032;-75
2022/09/20 07:23:27;;;;;;;4.10;0.90;;;17.40;79.20;;;;;;4928369;29;20409;-75
2022/09/20 07:25:53;;;;;;;2.45;0.80;;;17.40;79.10;;;;;;4929000;29;20055;-76
2022/09/20 07:28:19;;;;;;;4.05;0.90;;;17.50;79.10;;;;;;4927160;29;20066;-76
2022/09/20 07:30:45;;;;;;;3.15;1.00;;;17.40;79.00;;;;;;4927288;29;20036;-76
2022/09/20 07:33:15;;;;;;;1.17;0.60;;;17.50;79.10;;;;;;4928198;29;20075;-75
2022/09/20 07:35:41;;;;;;;2.20;0.60;;;17.50;79.10;;;;;;4927974;29;20027;-76
2022/09/20 07:38:07;;;;;;;1.55;0.60;;;17.50;79.10;;;;;;4928341;29;20079;-75
2022/09/20 07:40:32;;;;;;;3.63;1.15;;;17.50;79.10;;;;;;4926963;29;20039;-76
2022/09/20 07:42:58;;;;;;;3.17;0.85;;;17.50;79.10;;;;;;4928016;29;20449;-74
2022/09/20 07:45:24;;;;;;;1.77;0.90;;;17.50;78.90;;;;;;4927142;29;20047;-75
2022/09/20 07:47:49;;;;;;;2.10;0.60;;;17.50;78.70;;;;;;4928362;29;20042;-76
2022/09/20 07:50:15;;;;;;;2.25;0.70;;;17.60;78.60;;;;;;4926967;29;20875;-76
2022/09/20 07:52:40;;;;;;;2.00;0.80;;;17.60;78.40;;;;;;4926513;29;20122;-74
2022/09/20 07:55:06;;;;;;;1.60;0.63;;;17.60;78.30;;;;;;4927382;29;20062;-75
2022/09/20 07:57:36;;;;;;;1.55;0.60;;;17.60;78.30;;;;;;4928101;29;20059;-76
2022/09/20 08:00:05;;;;;;;1.38;0.60;;;17.60;78.40;;;;;;4927926;29;20111;-74
2022/09/20 08:02:30;;;;;;;1.90;0.82;;;17.60;78.50;;;;;;4927555;29;20284;-75
2022/09/20 08:04:56;;;;;;;1.83;0.70;;;17.60;78.50;;;;;;4928379;29;20027;-75
2022/09/20 08:07:21;;;;;;;3.08;1.08;;;17.60;78.60;;;;;;4926564;29;20079;-78
2022/09/20 08:09:47;;;;;;;2.03;0.60;;;17.60;78.40;;;;;;4926661;29;20031;-75
2022/09/20 08:12:13;;;;;;;1.90;0.70;;;17.60;78.40;;;;;;4926275;29;20031;-75
2022/09/20 08:14:38;;;;;;;2.10;0.70;;;17.60;78.40;;;;;;4927627;29;20027;-76
2022/09/20 08:17:04;;;;;;;2.67;0.73;;;17.70;78.50;;;;;;4928019;29;20020;-75
2022/09/20 08:19:29;;;;;;;1.98;0.70;;;17.70;78.40;;;;;;4927772;29;20027;-74
2022/09/20 08:21:55;;;;;;;2.83;0.70;;;17.70;78.20;;;;;;4927712;29;20047;-75
2022/09/20 08:24:20;;;;;;;2.42;0.85;;;17.70;78.10;;;;;;4926400;29;20126;-75
2022/09/20 08:26:47;;;;;;;1.65;0.68;;;17.70;78.00;;;;;;4927847;29;20390;-75
2022/09/20 08:29:14;;;;;;;1.67;0.60;;;17.70;78.00;;;;;;4926323;29;20390;-75
2022/09/20 08:31:41;;;;;;;2.30;0.70;;;17.70;78.00;;;;;;4927471;29;20032;-75
2022/09/20 08:34:08;;;;;;;4.07;1.15;;;17.70;78.10;;;;;;4926179;29;20031;-74
2022/09/20 08:36:37;;;;;;;1.98;0.70;;;17.70;78.20;;;;;;4926318;29;20102;-75
2022/09/20 08:39:03;;;;;;;2.90;0.80;;;17.60;78.10;;;;;;4927891;29;20106;-76
2022/09/20 08:41:50;;;;;;;1.95;0.55;;;17.70;78.10;;;;;;4925916;29;20043;-75
2022/09/20 08:44:26;;;;;;;2.83;0.80;;;17.80;78.00;;;;;;4926076;29;20027;-75
2022/09/20 08:47:04;;;;;;;1.38;0.73;;;17.80;77.90;;;;;;4926291;29;20040;-75
2022/09/20 08:49:31;;;;;;;1.70;0.70;;;17.90;77.70;;;;;;4925942;29;20119;-74
2022/09/20 08:51:57;;;;;;;1.42;0.65;;;18.00;77.40;;;;;;4927174;29;20027;-75
2022/09/20 08:54:25;;;;;;;2.33;0.60;;;18.00;77.30;;;;;;4927294;29;20508;-75
2022/09/20 08:56:51;;;;;;;2.90;0.60;;;18.10;77.10;;;;;;4927836;29;20028;-76
2022/09/20 08:59:20;;;;;;;1.90;0.60;;;18.10;76.90;;;;;;4926157;29;20034;-76
2022/09/20 09:01:50;;;;;;;2.10;0.80;;;18.10;76.90;;;;;;4925575;29;20036;-75
2022/09/20 09:04:23;;;;;;;1.88;0.68;;;18.20;76.70;;;;;;4925741;29;20412;-74
2022/09/20 09:06:51;;;;;;;2.05;0.60;;;18.30;76.50;;;;;;4927516;29;20513;-75
2022/09/20 09:09:23;;;;;;;1.90;0.80;;;18.30;76.30;;;;;;4927092;29;20445;-76
2022/09/20 09:11:50;;;;;;;3.63;0.90;;;18.40;75.90;;;;;;4925559;29;20412;-75
2022/09/20 09:17:10;;;;;;;2.15;0.70;;;18.60;75.40;;;;;;4927233;29;20052;-75
2022/09/20 09:19:50;;;;;;;1.65;0.60;;;18.60;75.30;;;;;;4927370;29;20299;-74
2022/09/20 09:22:20;;;;;;;2.17;0.75;;;18.60;75.40;;;;;;4926850;29;20071;-75
2022/09/20 09:25:05;;;;;;;3.10;0.88;;;18.60;75.50;;;;;;4927170;29;20489;-74
2022/09/20 09:27:30;;;;;;;2.13;0.68;;;18.60;75.60;;;;;;4927357;29;20031;-75
2022/09/20 09:29:56;;;;;;;1.83;0.68;;;18.60;75.60;;;;;;4927215;29;20031;-76
2022/09/20 09:32:28;;;;;;;1.73;0.60;;;18.70;75.50;;;;;;4925250;29;20066;-74
2022/09/20 09:34:54;;;;;;;2.38;0.75;;;18.70;76.00;;;;;;4925610;29;20167;-75
2022/09/20 09:37:30;;;;;;;2.13;0.77;;;18.70;75.60;;;;;;4925873;29;20139;-76
2022/09/20 09:40:11;;;;;;;2.17;0.88;;;18.60;75.60;;;;;;4926852;29;20027;-75
2022/09/20 09:42:49;;;;;;;1.40;0.52;;;18.60;75.70;;;;;;4927162;29;20031;-74
2022/09/20 09:45:30;;;;;;;1.70;0.60;;;18.50;75.90;;;;;;4925508;29;20032;-75
2022/09/20 09:47:58;;;;;;;2.13;0.68;;;18.50;76.00;;;;;;4927092;29;20024;-76
2022/09/20 09:50:33;;;;;;;2.03;0.70;;;18.50;75.90;;;;;;4925336;29;20091;-75
2022/09/20 09:53:14;;;;;;;1.38;0.57;;;18.50;75.90;;;;;;4925441;29;20038;-75
2022/09/20 09:55:51;;;;;;;1.30;0.60;;;18.50;76.00;;;;;;4927263;29;20028;-74
2022/09/20 09:58:38;;;;;;;1.08;0.60;;;18.50;76.10;;;;;;4926823;29;20031;-75
2022/09/20 10:01:10;;;;;;;1.35;0.70;;;18.40;76.30;;;;;;4928943;29;20099;-77
2022/09/20 10:03:44;;;;;;;2.63;0.82;;;18.30;76.40;;;;;;4930150;29;20401;-75
2022/09/20 10:06:43;;;;;;;1.30;0.50;;;18.30;76.60;;;;;;4930111;29;20039;-75
2022/09/20 10:09:25;;;;;;;1.30;0.60;;;18.30;76.60;;;;;;4928979;29;20024;-76
2022/09/20 10:11:59;;;;;;;2.85;0.85;;;18.20;76.50;;;;;;4930142;29;20050;-76
2022/09/20 10:14:49;;;;;;;1.13;0.60;;;18.20;76.40;;;;;;4928809;29;20028;-75
2022/09/20 10:17:20;;;;;;;1.55;0.60;;;18.20;76.60;;;;;;4930062;29;20228;-76
2022/09/20 10:20:21;;;;;;;2.58;0.70;;;18.20;76.70;;;;;;4928926;29;20536;-76
2022/09/20 10:23:12;;;;;;;1.42;0.57;;;18.10;76.80;;;;;;4928570;29;20126;-74
2022/09/20 10:26:06;;;;;;;1.70;0.70;;;18.10;77.10;;;;;;4944410;29;20190;-76
2022/09/20 10:28:50;;;;;;;1.20;0.57;;;18.00;77.10;;;;;;4929862;29;20062;-75
2022/09/20 10:31:36;;;;;;;1.70;0.60;;;18.00;77.20;;;;;;4929569;29;20460;-75
2022/09/20 10:34:23;;;;;;;1.33;0.60;;;18.00;77.20;;;;;;4928545;29;20039;-75
2022/09/20 10:36:57;;;;;;;0.88;0.52;;;18.00;77.40;;;;;;4928635;29;20030;-74
2022/09/20 10:39:35;;;;;;;1.23;0.60;;;17.90;77.40;;;;;;4928198;29;20063;-76
2022/09/20 10:45:19;;;;;;;1.30;0.50;;;17.90;77.40;;;;;;4930011;29;20472;-75
2022/09/20 10:48:02;;;;;;;1.23;0.50;;;18.00;77.50;;;;;;4928137;29;20114;-74
2022/09/20 10:50:50;;;;;;;1.33;0.60;;;17.90;77.40;;;;;;4929554;29;20462;-74
2022/09/20 10:53:31;;;;;;;1.88;0.60;;;18.00;77.50;;;;;;4929180;29;20028;-75
2022/09/20 10:56:32;;;;;;;0.70;0.50;;;18.00;77.50;;;;;;4929638;29;20038;-75
2022/09/20 10:59:06;;;;;;;1.15;0.63;;;17.90;77.40;;;;;;4928067;29;20035;-76
2022/09/20 11:01:44;;;;;;;3.22;0.82;;;17.90;77.40;;;;;;4928551;29;20070;-74
2022/09/20 11:04:45;;;;;;;1.10;0.68;;;18.00;77.50;;;;;;4929267;29;20027;-75
2022/09/20 11:07:34;;;;;;;1.40;0.57;;;18.00;77.40;;;;;;4927564;29;20190;-75
2022/09/20 11:10:20;;;;;;;1.58;0.57;;;18.00;77.30;;;;;;4927652;29;20031;-75
2022/09/20 11:12:52;;;;;;;1.65;0.60;;;18.10;77.00;;;;;;4928764;29;20032;-76
2022/09/20 11:15:21;;;;;;;2.53;0.73;;;18.10;76.90;;;;;;4929020;29;20027;-75
2022/09/20 11:18:00;;;;;;;2.17;0.70;;;18.20;76.80;;;;;;4927660;29;20023;-75
2022/09/20 11:20:32;;;;;;;1.45;0.60;;;18.20;76.90;;;;;;4929029;29;20659;-74
2022/09/20 11:23:04;;;;;;;1.13;0.50;;;18.10;76.80;;;;;;4929131;29;20400;-74
2022/09/20 11:25:43;;;;;;;1.30;0.60;;;18.20;77.00;;;;;;4928980;29;20036;-75
2022/09/20 11:28:24;;;;;;;1.15;0.57;;;18.10;77.00;;;;;;4927430;29;20042;-75
2022/09/20 11:31:25;;;;;;;1.85;0.55;;;18.10;77.00;;;;;;4927566;29;20445;-75
2022/09/20 11:34:01;;;;;;;0.65;0.50;;;18.10;77.10;;;;;;4926715;29;20047;-74
2022/09/20 11:36:51;;;;;;;1.05;0.60;;;18.10;77.10;;;;;;4928730;29;20164;-74
2022/09/20 11:39:45;;;;;;;1.13;0.50;;;18.10;77.20;;;;;;4928859;29;20023;-75
2022/09/20 11:42:15;;;;;;;2.10;0.70;;;18.10;77.30;;;;;;4928163;29;20039;-75
2022/09/20 11:44:41;;;;;;;1.77;0.57;;;18.00;77.20;;;;;;4928507;29;20554;-75
2022/09/20 11:47:20;;;;;;;0.90;0.52;;;18.00;77.30;;;;;;4928400;29;20051;-74
2022/09/20 11:50:03;;;;;;;1.48;0.60;;;18.00;77.30;;;;;;4928516;29;20043;-75
2022/09/20 11:53:18;;;;;;;1.40;0.55;;;18.00;77.40;;;;;;4926490;29;20036;-75
2022/09/20 11:56:17;;;;;;;1.52;0.60;;;18.00;77.40;;;;;;4927889;29;20043;-75
2022/09/20 11:58:47;;;;;;;;;;;18.00;77.30;;;;;;4927151;29;20055;-76
2022/09/20 12:01:16;;;;;;;2.28;0.60;;;18.00;77.40;;;;;;4926738;29;19966;-75
2022/09/20 12:03:48;;;;;;;1.77;0.80;;;18.00;77.40;;;;;;4942356;29;20047;-75
2022/09/20 12:06:32;;;;;;;1.23;0.50;;;18.10;77.30;;;;;;4927887;29;20032;-75
2022/09/20 12:09:00;;;;;;;1.00;0.60;;;18.10;77.20;;;;;;4928348;29;20031;-75
2022/09/20 12:11:32;;;;;;;1.92;0.43;;;18.20;77.00;;;;;;4926509;29;20032;-75
2022/09/20 12:14:23;;;;;;;1.33;0.60;;;18.20;77.00;;;;;;4926801;29;20524;-75
2022/09/20 12:16:50;;;;;;;1.02;0.47;;;18.20;76.90;;;;;;4928095;29;20408;-76
2022/09/20 12:19:35;;;;;;;1.58;0.50;;;18.20;77.00;;;;;;4926305;29;20054;-74
2022/09/20 12:22:02;;;;;;;1.55;0.63;;;18.10;77.10;;;;;;4927469;29;20028;-75
2022/09/20 12:24:38;;;;;;;1.23;0.63;;;18.10;77.20;;;;;;4926230;29;20284;-75
2022/09/20 12:27:28;;;;;;;2.03;0.60;;;18.10;77.20;;;;;;4927803;29;20032;-75
2022/09/20 12:30:05;;;;;;;2.53;0.73;;;18.10;77.40;;;;;;4926362;29;20035;-75
2022/09/20 12:32:46;;;;;;;1.90;0.70;;;18.10;77.40;;;;;;4927643;29;20031;-76
2022/09/20 12:35:37;;;;;;;0.68;0.40;;;18.00;77.40;;;;;;4926528;29;20027;-74
2022/09/20 12:38:19;;;;;;;1.15;0.52;;;18.00;77.40;;;;;;4927734;29;20023;-75
2022/09/20 12:41:11;;;;;;;1.55;0.40;;;18.00;77.40;;;;;;4926162;29;20425;-75
2022/09/20 12:43:54;;;;;;;1.27;0.57;;;18.00;77.50;;;;;;4925925;29;20024;-75
2022/09/20 12:46:43;;;;;;;0.50;0.30;;;17.90;77.60;;;;;;4927463;29;20039;-75
2022/09/20 12:55:26;;;;;;;1.60;0.70;;;18.00;77.60;;;;;;4927023;29;20049;-75
2022/09/20 12:58:00;;;;;;;0.52;0.32;;;18.00;77.70;;;;;;4926053;29;20030;-75
2022/09/20 13:00:39;;;;;;;1.23;0.60;;;18.00;77.60;;;;;;4904528;29;20039;-74
2022/09/20 13:03:27;;;;;;;0.77;0.38;;;18.00;77.60;;;;;;4907891;29;20028;-75
2022/09/20 13:06:05;;;;;;;0.95;0.50;;;18.00;77.50;;;;;;4919793;29;20042;-74
2022/09/20 13:08:59;;;;;;;1.40;0.50;;;18.10;77.30;;;;;;4925652;29;20323;-74
2022/09/20 13:11:42;;;;;;;2.22;0.60;;;18.10;77.20;;;;;;4917956;29;20431;-75
2022/09/20 13:14:22;;;;;;;0.88;0.40;;;18.10;77.10;;;;;;4925821;29;20044;-75
2022/09/20 13:17:11;;;;;;;1.38;0.40;;;18.10;77.00;;;;;;4928840;29;20394;-86
2022/09/20 13:19:43;;;;;;;0.93;0.50;;;18.10;77.30;;;;;;4927193;29;20031;-74
2022/09/20 13:22:16;;;;;;;0.90;0.40;;;18.10;77.40;;;;;;4926710;29;20086;-75
2022/09/20 13:24:45;;;;;;;1.95;0.70;;;18.00;77.40;;;;;;4927002;29;20507;-75
2022/09/20 13:27:24;;;;;;;0.90;0.60;;;18.00;77.60;;;;;;4931614;29;20024;-74
2022/09/20 13:29:52;;;;;;;0.80;0.40;;;18.00;77.50;;;;;;4926769;29;20132;-75
2022/09/20 13:32:21;;;;;;;1.20;0.55;;;18.00;77.60;;;;;;4955925;29;20028;-76
2022/09/20 13:35:22;;;;;;;1.00;0.43;;;17.90;77.70;;;;;;4927682;29;20039;-75
2022/09/20 13:37:56;;;;;;;1.00;0.45;;;17.90;77.70;;;;;;4930358;29;20028;-75
2022/09/20 13:40:34;;;;;;;2.03;0.50;;;17.90;77.90;;;;;;4930386;29;20393;-75
2022/09/20 13:43:27;;;;;;;1.23;0.40;;;17.90;77.90;;;;;;4930263;29;20066;-75
2022/09/20 13:46:06;;;;;;;1.67;0.43;;;17.90;78.00;;;;;;4928971;29;20512;-75
2022/09/20 13:48:32;;;;;;;2.47;0.50;;;17.90;78.00;;;;;;4931875;29;20051;-75
2022/09/20 13:50:57;;;;;;;0.98;0.50;;;17.80;78.10;;;;;;4943318;29;20036;-75
2022/09/20 13:53:25;;;;;;;3.00;0.88;;;17.80;78.30;;;;;;4929907;29;20039;-74
2022/09/20 13:55:53;;;;;;;1.13;0.52;;;17.80;78.00;;;;;;4930972;29;20059;-75
2022/09/20 13:58:27;;;;;;;2.17;0.40;;;17.80;77.90;;;;;;4932473;29;20019;-76
2022/09/20 14:00:55;;;;;;;2.95;0.70;;;17.80;77.70;;;;;;4930316;29;20449;-76
2022/09/20 14:03:21;;;;;;;1.80;0.52;;;17.80;77.70;;;;;;4930091;29;20116;-75
2022/09/20 14:05:52;;;;;;;2.05;0.60;;;17.80;77.60;;;;;;4929797;29;20032;-75
2022/09/20 14:08:25;;;;;;;3.08;0.52;;;17.90;77.60;;;;;;4905746;29;20036;-76
2022/09/20 14:11:18;;;;;;;1.33;0.50;;;17.90;77.60;;;;;;4925764;29;20040;-76
2022/09/20 14:13:47;;;;;;;2.83;0.57;;;17.90;77.70;;;;;;4911341;29;20576;-76
2022/09/20 14:16:14;;;;;;;1.02;0.40;;;17.90;77.80;;;;;;4928865;29;20039;-77
2022/09/20 14:18:42;;;;;;;3.75;0.50;;;17.90;78.00;;;;;;4911321;29;20024;-77
2022/09/20 14:21:09;;;;;;;1.10;0.50;;;17.90;77.90;;;;;;4925857;29;20039;-76
2022/09/20 14:24:04;;;;;;;1.85;0.60;;;17.80;78.10;;;;;;4908473;29;20580;-75
2022/09/20 14:26:33;;;;;;;2.63;0.63;;;17.80;78.10;;;;;;4910927;29;20035;-77
2022/09/20 14:29:33;;;;;;;2.55;0.50;;;17.80;78.20;;;;;;4929516;29;20059;-77
2022/09/20 14:32:06;;;;;;;1.63;0.50;;;17.80;78.40;;;;;;4927712;29;20175;-77
2022/09/20 14:34:36;;;;;;;0.55;0.30;;;17.80;78.30;;;;;;4920419;29;20040;-77
2022/09/20 14:37:06;;;;;;;1.58;0.65;;;17.80;78.40;;;;;;4923242;29;20038;-77
2022/09/20 14:39:33;;;;;;;0.98;0.38;;;17.80;78.50;;;;;;4935514;29;20031;-75
2022/09/20 14:41:59;;;;;;;1.13;0.60;;;17.80;78.40;;;;;;4929070;29;20078;-77
2022/09/20 14:44:32;;;;;;;1.42;0.60;;;17.80;78.40;;;;;;4928006;29;20031;-75
2022/09/20 14:47:13;;;;;;;2.20;0.60;;;17.80;78.50;;;;;;4929265;29;20509;-76
2022/09/20 17:17:21;;;;;;;1.23;0.40;;;17.60;79.00;;;;;;5150967;23;20063;-76
2022/09/20 17:19:47;;;;;;;1.05;0.40;;;17.60;79.10;;;;;;4952218;28;20285;-77
2022/09/20 17:22:12;;;;;;;1.63;0.50;;;17.60;79.20;;;;;;4955485;29;20106;-77
2022/09/20 17:24:38;;;;;;;1.52;0.40;;;17.60;79.20;;;;;;4958192;29;20031;-78
2022/09/20 17:27:05;;;;;;;1.42;0.32;;;17.60;79.30;;;;;;4957578;28;20031;-77
2022/09/20 17:29:31;;;;;;;0.73;0.30;;;17.60;79.30;;;;;;4957003;29;20085;-78
2022/09/20 17:31:59;;;;;;;1.02;0.52;;;17.60;79.30;;;;;;4971735;23;20055;-79
2022/09/20 17:34:26;;;;;;;0.80;0.30;;;17.60;79.40;;;;;;4940936;29;20027;-78
2022/09/20 17:36:55;;;;;;;0.45;0.30;;;17.60;79.40;;;;;;4938201;29;20020;-80
2022/09/20 17:39:21;;;;;;;0.77;0.40;;;17.50;79.30;;;;;;4939872;29;20019;-80
2022/09/20 17:41:48;;;;;;;0.88;0.40;;;17.50;79.40;;;;;;4939726;29;20038;-78
2022/09/20 17:44:15;;;;;;;1.13;0.45;;;17.50;79.40;;;;;;4939346;29;20078;-77
2022/09/20 17:46:45;;;;;;;1.25;0.40;;;17.50;79.40;;;;;;4937291;29;20065;-77
2022/09/20 17:49:13;;;;;;;1.45;0.32;;;17.50;79.40;;;;;;4938493;29;20035;-77
2022/09/20 17:51:41;;;;;;;1.40;0.45;;;17.60;79.50;;;;;;4937312;29;20464;-78
2022/09/20 17:54:07;;;;;;;1.88;0.70;;;17.50;79.40;;;;;;4941306;29;20091;-77
2022/09/20 17:56:34;;;;;;;0.98;0.40;;;17.50;79.50;;;;;;4941712;29;20087;-79
2022/09/20 17:59:02;;;;;;;0.73;0.40;;;17.50;79.50;;;;;;4943089;29;20382;-79
2022/09/20 18:01:29;;;;;;;1.02;0.55;;;17.50;79.50;;;;;;4938832;29;20126;-77
2022/09/20 18:03:57;;;;;;;3.60;0.47;;;17.50;79.40;;;;;;4938398;29;20031;-77
2022/09/20 18:06:29;;;;;;;2.78;0.65;;;17.60;79.40;;;;;;4941323;29;20598;-81
2022/09/20 18:09:01;;;;;;;1.27;0.40;;;17.60;79.10;;;;;;4939978;29;20038;-76
2022/09/20 18:11:33;;;;;;;3.15;0.50;;;17.60;78.90;;;;;;4938548;29;20175;-78
2022/09/20 18:13:59;;;;;;;0.75;0.52;;;17.60;78.90;;;;;;4940672;29;20042;-77
2022/09/20 18:16:25;;;;;;;1.67;0.55;;;17.50;79.00;;;;;;4938338;29;20027;-78
2022/09/20 18:18:50;;;;;;;2.15;0.47;;;17.50;79.10;;;;;;4937907;29;20083;-77
2022/09/20 18:21:18;;;;;;;1.20;0.45;;;17.60;79.20;;;;;;4938969;29;20036;-76
2022/09/20 18:23:45;;;;;;;0.43;0.30;;;17.50;79.30;;;;;;4937767;29;20383;-78
2022/09/20 18:26:22;;;;;;;2.33;0.50;;;17.50;79.20;;;;;;4937656;29;20027;-77
2022/09/20 18:28:56;;;;;;;2.08;0.68;;;17.50;79.30;;;;;;4937622;29;20034;-76
2022/09/20 18:31:32;;;;;;;1.55;0.55;;;17.50;79.30;;;;;;4938288;29;20035;-77
2022/09/20 18:33:59;;;;;;;1.58;0.60;;;17.50;79.30;;;;;;4936054;29;20028;-77
2022/09/20 18:36:26;;;;;;;1.40;0.40;;;17.50;79.30;;;;;;4934720;29;20019;-78
2022/09/20 18:38:53;;;;;;;0.68;0.35;;;17.50;79.40;;;;;;4927334;29;20118;-76
2022/09/20 18:41:20;;;;;;;6.50;1.15;;;17.50;79.30;;;;;;4932816;29;20050;-78
2022/09/20 18:43:46;;;;;;;16.25;1.95;;;17.40;79.10;;;;;;4944717;29;20051;-76
2022/09/20 18:46:12;;;;;;;7.97;1.23;;;17.50;79.10;;;;;;4950241;29;20484;-77
2022/09/20 18:48:39;;;;;;;6.13;1.08;;;17.40;78.50;;;;;;4952234;29;20393;-77
2022/09/20 18:51:05;;;;;;;8.35;1.30;;;17.40;78.60;;;;;;4937328;29;20041;-76
2022/09/20 18:53:36;;;;;;;6.75;1.15;;;17.50;79.00;;;;;;4936711;29;20071;-79
2022/09/20 18:56:09;;;;;;;6.03;1.20;;;17.40;78.80;;;;;;4937196;29;20031;-78
2022/09/20 18:58:37;;;;;;;6.72;0.90;;;17.50;79.10;;;;;;4953548;29;20028;-77
2022/09/20 19:01:40;;;;;;;7.35;1.00;;;17.50;79.10;;;;;;4955753;28;20392;-77
2022/09/20 19:04:29;;;;;;;8.10;1.10;;;17.50;79.00;;;;;;4955867;29;20027;-77
2022/09/20 19:07:15;;;;;;;5.53;0.85;;;17.50;79.10;;;;;;4937892;29;20086;-76
2022/09/20 19:10:04;;;;;;;6.95;1.10;;;17.50;79.00;;;;;;4930975;29;20042;-77
2022/09/20 19:12:44;;;;;;;6.10;1.52;;;17.50;78.20;;;;;;4924973;29;20036;-77
2022/09/20 19:15:16;;;;;;;8.40;1.17;;;17.50;78.30;;;;;;4933985;29;20536;-76
2022/09/20 19:17:56;;;;;;;;;;;17.50;78.50;;;;;;4933654;29;20158;-77
2022/09/20 19:20:42;;;;;;;7.03;1.38;;;17.50;78.70;;;;;;4931385;29;19936;-76
2022/09/20 19:23:32;;;;;;;5.80;0.98;;;17.40;78.70;;;;;;4927868;29;20043;-76
2022/09/20 19:26:13;;;;;;;;;;;17.40;78.80;;;;;;4930768;29;20035;-77
2022/09/20 19:28:39;;;;;;;5.05;0.90;;;17.40;78.80;;;;;;4933533;28;19978;-76
2022/09/20 19:31:05;;;;;;;4.45;0.88;;;17.50;78.90;;;;;;4921723;29;20145;-77
2022/09/20 19:33:31;;;;;;;3.83;0.80;;;17.40;78.80;;;;;;4939355;29;20038;-77
2022/09/20 19:35:58;;;;;;;3.28;1.25;;;17.50;78.90;;;;;;4948284;29;20031;-78
2022/09/20 19:38:42;;;;;;;6.18;1.02;;;17.40;78.80;;;;;;4938990;29;20035;-77
2022/09/20 19:41:25;;;;;;;3.40;0.90;;;17.40;78.90;;;;;;4929706;29;20086;-77
2022/09/20 19:44:35;;;;;;;5.40;0.93;;;17.40;78.90;;;;;;4928020;29;20051;-77
2022/09/20 19:47:24;;;;;;;3.50;0.80;;;17.40;79.00;;;;;;4926973;29;20138;-77
2022/09/20 19:49:55;;;;;;;5.40;1.02;;;17.40;78.90;;;;;;4940038;29;20027;-77
2022/09/20 19:52:22;;;;;;;4.93;1.13;;;17.40;79.10;;;;;;4943271;28;20038;-77
2022/09/20 19:54:49;;;;;;;3.00;1.00;;;17.50;79.10;;;;;;4939527;29;20039;-77
2022/09/20 19:57:21;;;;;;;3.17;0.80;;;17.40;79.00;;;;;;4932179;28;20027;-77
2022/09/20 19:59:48;;;;;;;2.63;0.90;;;17.50;79.10;;;;;;4948530;29;20027;-77
2022/09/20 20:27:10;;;;;;;4.07;0.88;;;17.40;78.60;;;;;;5103730;27;1173398;-76
2022/09/20 20:29:36;;;;;;;4.80;0.80;;;17.40;79.00;;;;;;5131570;27;20117;-77
2022/09/20 20:32:01;;;;;;;5.20;0.80;;;17.40;79.00;;;;;;5132296;27;20083;-77
2022/09/20 20:34:27;;;;;;;2.80;0.85;;;17.40;79.10;;;;;;5151347;27;20023;-77
2022/09/20 20:36:59;;;;;;;2.88;0.85;;;17.40;79.10;;;;;;5151614;27;20023;-76
2022/09/20 20:39:30;;;;;;;2.50;0.80;;;17.40;79.10;;;;;;5132311;27;20030;-77
2022/09/20 20:42:00;;;;;;;1.00;0.70;;;17.40;79.10;;;;;;5151085;27;20026;-77
2022/09/20 20:44:35;;;;;;;2.53;0.73;;;17.40;79.20;;;;;;5151474;27;20151;-76